Tiempo atmosférico en la estación meteorológica de Arganda Del Rey, Madrid (533 m.)



Fecha
DESCASC
Temp. máxima en grados centígrados (hora)
DESCASC
Temp. mínima en grados centígrados (hora)
DESCASC
Temp. media en grados centígrados
DESCASC
Racha de viento máxima en m/sg (hora)
DESCASC
Velocidad máxima media en intervalos de 10 minutos(hora)
DESCASC
Precipitaciones diarias en mm
DESCASC
Precipitaciones de 00:00 a 06:00 en mm
DESCASC
Precipitaciones de 06:00 a 12:00 en mm
DESCASC
Precipitaciones de 12:00 a 18:00 en mm
DESCASC
Precipitaciones de 18:00 a 24:00 en mm
DESCASC
15-04-2019 26.6 (16:50) 10.7 (00:00) 18.7 16.39 (17:50) 10 (17:40) 0 0 0 0 0
06-04-2019 12.5 (17:30) 3.5 (00:00) 8 15.28 (17:50) 10.83 (17:40) 1.4 0 0.2 1.2 0
09-04-2019 13.3 (18:20) 5.5 (00:00) 9.4 15 (15:20) 8.89 (13:50) 4.8 0 0 4.6 0.2
02-04-2019 19.4 (15:00) 8.3 (00:00) 13.8 14.72 (15:00) 6.11 (16:00) 1.2 1 0 0.2 0
17-04-2019 25.8 (16:10) 10.3 (00:00) 18 14.17 (00:50) 8.61 (00:50) 0.8 0 0 0 0.8
08-04-2019 17.7 (16:40) 8.6 (00:00) 13.2 14.17 (15:50) 8.89 (14:20) 2 0 1.8 0.2 0
29-03-2019 19.5 (15:50) 4.2 (00:00) 11.8 13.89 (14:30) 8.61 (23:50) 0 0 0 0 0
05-04-2019 10.6 (02:00) 4.3 (00:00) 7.5 13.06 (18:40) 8.06 (18:40) 4.2 0.2 2.6 1.4 0
30-03-2019 20.8 (18:00) 3.5 (00:00) 12.1 12.22 (00:10) 7.22 (00:20) 0 0 0 0 0
16-04-2019 23.6 (17:20) 5 (00:00) 14.3 12.22 (23:59) 7.78 (23:59) 0 0 0 0 0
11-04-2019 17.9 (15:20) 0.6 (00:00) 9.2 11.94 (15:10) 7.22 (15:30) 0 0 0 0 0
07-04-2019 14.2 (15:50) 3.7 (00:00) 8.9 11.94 (12:40) 7.22 (17:50) 1 0 0 0 1
14-04-2019 25 (16:50) 7.4 (00:00) 16.2 11.67 (17:10) 4.17 (17:40) 0 0 0 0 0
20-04-2019 19 (14:20) 9.5 (01:50) 14.3 11.67 (09:10) 7.78 (09:10) 1.4 0 0 0 1.4
03-04-2019 17.6 (14:50) 3.4 (00:00) 10.5 11.39 (14:40) 6.39 (15:20) 0 0 0 0 0
10-04-2019 16.2 (17:50) 5.2 (00:00) 10.7 10.83 (12:00) 6.11 (12:00) 0.2 0 0.2 0 0
04-04-2019 15.8 (17:40) 1 (00:00) 8.4 10 (17:50) 5.56 (17:50) 0 0 0 0 0
18-04-2019 15.2 (00:00) 10.3 (00:00) 12.8 9.44 (01:50) 6.39 (01:50) 27.6 10.8 13.6 1.4 1.8
22-04-2019 18.9 (17:30) 6.7 (08:00) 12.8 8.89 (15:20) 4.72 (17:10) 0 0 0 0 0
21-04-2019 13.6 (15:10) 9.1 (08:00) 11.4 8.61 (10:20) 5.28 (16:30) 0 0 0 0 0
12-04-2019 20.2 (19:00) 0.9 (00:00) 10.6 6.67 (14:20) 3.89 (14:20) 0 0 0 0 0
28-03-2019 21 (16:50) 3.6 (00:00) 12.3 6.67 (14:50) 3.33 (14:50) 0 0 0 0 0
31-03-2019 12.6 (12:40) 8.4 (00:00) 10.5 6.11 (13:40) 3.61 (12:00) 0.4 0 0 0.4 0
13-04-2019 23.5 (17:50) 1.3 (00:00) 12.4 5.83 (18:10) 3.33 (18:10) 0 0 0 0 0
19-04-2019 12.4 (12:10) 9.8 (06:30) 11.1 5.83 (12:40) 3.06 (12:40) 7.6 0.2 0 6.6 0.8
27-03-2019 20.7 (17:40) 2.3 (00:00) 11.5 5.83 (00:30) 3.61 (02:30) 0 0 0 0 0
01-04-2019 17.6 (19:00) 9.1 (00:00) 13.4 4.44 (17:30) 2.5 (17:20) 1.2 0.4 0.6 0.2 0

Gráficas

Temp. máximas Temp. mínimas Temp. medias Precipitaciones Rachas de viento máximas Velocidades máximas media en intervalos de 10 minutos

Datos horarios

Fecha y hora oficial Temperatura (ºC) Velocidad del viento (km/h) Dirección del viento Racha (km/h) Dirección de racha Precipitación (mm) Presión (hPa) Tendencia (hPa) Humedad (%)
2019-04-25 23:00:00 9.6 16 Oeste 26 Sudoeste 0 -- -- 72
2019-04-25 22:00:00 10.3 15 Oeste 38 Sudoeste 0 -- -- 65
2019-04-25 21:00:00 11 22 Sudoeste 47 Oeste 0 -- -- 59
2019-04-25 20:00:00 12.1 30 Oeste 55 Sudoeste 0 -- -- 61
2019-04-25 19:00:00 13.1 34 Sudoeste 53 Oeste 0 -- -- 56
2019-04-25 18:00:00 12.8 35 Sudoeste 57 Sudoeste 0 -- -- 59
2019-04-25 17:00:00 13.3 35 Oeste 60 Sudoeste 0 -- -- 55
2019-04-25 16:00:00 13.8 35 Oeste 54 Sudoeste 0 -- -- 61
2019-04-25 15:00:00 12.2 22 Oeste 61 Oeste 0 -- -- 69
2019-04-25 14:00:00 12.9 30 Sudoeste 55 Sudoeste 0 -- -- 59
2019-04-25 13:00:00 12 32 Sudoeste 56 Sudoeste 0 -- -- 61
2019-04-25 12:00:00 10.8 27 Sudoeste 55 Oeste 0 -- -- 68
2019-04-25 11:00:00 10 26 Sudoeste 46 Sudoeste 0 -- -- 74
2019-04-25 10:00:00 9.7 22 Sudoeste 37 Oeste 0 -- -- 77
2019-04-25 09:00:00 8.5 23 Sudoeste 33 Sudoeste 0 -- -- 81
2019-04-25 08:00:00 8.6 19 Sudoeste 29 Sudoeste 0 -- -- 83
2019-04-25 07:00:00 8.5 13 Sudoeste 24 Sudoeste 0 -- -- 85
2019-04-25 06:00:00 8.8 19 Sudoeste 31 Sudoeste 0 -- -- 86
2019-04-25 05:00:00 9.1 22 Sudoeste 33 Sudoeste 0 -- -- 83
2019-04-25 04:00:00 9.6 18 Sudoeste 40 Sudoeste 0 -- -- 84
2019-04-25 03:00:00 10.5 23 Sudoeste 53 Sudoeste 1.4 -- -- 89
2019-04-25 02:00:00 12.2 23 Sudoeste 41 Sur 1.8 -- -- 89
2019-04-25 01:00:00 11.9 24 Sur 33 Sur 0.2 -- -- 90
2019-04-25 00:00:00 11.5 15 Sur 26 Sur 0 -- -- 92
2019-04-24 23:00:00 10.9 9 Sur 24 Sur 0 -- -- 93
2019-04-24 22:00:00 10.7 12 Sudoeste 32 Sudoeste 1.4 -- -- 93
2019-04-24 21:00:00 10.5 24 Oeste 50 Oeste 4.6 -- -- 91
2019-04-24 20:00:00 12.2 29 Sur 48 Sur 0.8 -- -- 90
2019-04-24 19:00:00 12 26 Sur 57 Sur 1.6 -- -- 89
2019-04-24 18:00:00 12.7 29 Sur 48 Sur 0.4 -- -- 84
2019-04-24 17:00:00 12.7 33 Sur 53 Sur 0.4 -- -- 82
2019-04-24 16:00:00 12.4 27 Sur 49 Sudoeste 0.2 -- -- 83
2019-04-24 15:00:00 12.1 28 Sur 43 Sur 0.2 -- -- 83
2019-04-24 14:00:00 10.9 24 Sur 43 Sur 0.2 -- -- 88
2019-04-24 13:00:00 9.6 9 Sur 31 Sur 0.4 -- -- 89
2019-04-24 12:00:00 8.6 15 Sur 37 Sudeste 0.6 -- -- 88
2019-04-24 11:00:00 7.8 24 Sur 41 Sur 0.2 -- -- 85
2019-04-24 10:00:00 7.5 23 Sur 39 Sur 0.2 -- -- 84
2019-04-24 09:00:00 6.4 18 Sur 34 Sudeste 0.2 -- -- 85
2019-04-24 08:00:00 6.2 14 Sur 22 Sur 0 -- -- 83
2019-04-24 07:00:00 5.9 10 Sur 19 Sur 0 -- -- 83
2019-04-24 06:00:00 5.3 7 Sur 12 Sur 0 -- -- 87
2019-04-24 05:00:00 5.9 11 Sudoeste 24 Sudoeste 0 -- -- 86
2019-04-24 04:00:00 6 18 Sudoeste 28 Sudoeste 0 -- -- 83
2019-04-24 03:00:00 6.1 14 Sudoeste 24 Sudoeste 0 -- -- 80
2019-04-24 02:00:00 6.7 15 Sudoeste 28 Sudoeste 0 -- -- 83
2019-04-24 01:00:00 7.5 17 Sudoeste 26 Sudoeste 0 -- -- 79
2019-04-24 00:00:00 7.3 18 Sudoeste 30 Sudoeste 0 -- -- 80
2019-04-23 23:00:00 8.2 18 Sudoeste 32 Sudoeste 0 -- -- 75
2019-04-23 22:00:00 7.6 13 Sudoeste 46 Sudoeste 0 -- -- 77
2019-04-23 21:00:00 9 15 Sudoeste 33 Sudoeste 0 -- -- 76
2019-04-23 20:00:00 9.7 21 Sudoeste 43 Sudoeste 0 -- -- 71
2019-04-23 19:00:00 10.7 27 Sudoeste 51 Oeste 0 -- -- 66
2019-04-23 18:00:00 12.6 25 Sudoeste 54 Oeste 0 -- -- 56
2019-04-23 17:00:00 12 27 Oeste 52 Sudoeste 0 -- -- 58
2019-04-23 16:00:00 13.1 19 Sudoeste 32 Sudoeste 0.2 -- -- 58
2019-04-23 15:00:00 11.8 12 Sur 30 Sudoeste 0 -- -- 69
2019-04-23 14:00:00 8.9 12 Sudoeste 35 Sudoeste 0.2 -- -- 79
2019-04-23 13:00:00 9.2 15 Sudoeste 31 Sudoeste 0 -- -- 84
2019-04-23 12:00:00 8.6 15 Sudoeste 28 Sudoeste 0.2 -- -- 89
2019-04-23 11:00:00 9.5 11 Sudoeste 21 Sudoeste 0.4 -- -- 86
2019-04-23 10:00:00 9.4 13 Sur 38 Sudoeste 0.4 -- -- 88
2019-04-23 09:00:00 10.9 19 Sudoeste 35 Sur 0 -- -- 83
2019-04-23 08:00:00 11.9 13 Sur 19 Sur 0 -- -- 74
2019-04-23 07:00:00 11.9 12 Sur 20 Sur 0 -- -- 73
2019-04-23 06:00:00 11.6 3 Sudoeste 10 Sudoeste 0 -- -- 70
2019-04-23 05:00:00 12.3 7 Sur 19 Sur 0 -- -- 67
2019-04-23 04:00:00 12.5 13 Sudoeste 23 Sudoeste 0 -- -- 70
2019-04-23 03:00:00 12.2 5 Sudoeste 10 Sur 0 -- -- 78
2019-04-23 02:00:00 12.3 6 Sudoeste 9 Sudoeste 0 -- -- 79
2019-04-23 01:00:00 13.6 9 Sudoeste 15 Sudoeste 0 -- -- 70
2019-04-23 00:00:00 13.2 5 Sudoeste 12 Sudoeste 0 -- -- 72
2019-04-22 23:00:00 14.1 0 Calma 13 Sur 0 -- -- 66
2019-04-22 22:00:00 15.6 8 Sur 12 Sudeste 0 -- -- 60
2019-04-22 21:00:00 16.4 9 Sur 13 Sur 0 -- -- 56
2019-04-22 20:00:00 17.5 9 Sur 23 Sur 0 -- -- 51
2019-04-22 19:00:00 18.2 13 Sur 24 Sudoeste 0 -- -- 49
2019-04-22 18:00:00 18.1 14 Sur 26 Sudoeste 0 -- -- 50
2019-04-22 17:00:00 18.5 11 Sur 21 Sur 0 -- -- 49
2019-04-22 16:00:00 17.9 12 Sudoeste 32 Sudoeste 0 -- -- 48
2019-04-22 15:00:00 17.2 9 Sudoeste 21 Oeste 0 -- -- 57
2019-04-22 14:00:00 15.9 10 Oeste 19 Oeste 0 -- -- 57
2019-04-22 13:00:00 15.2 8 Sudoeste 15 Oeste 0 -- -- 60
2019-04-22 12:00:00 14.1 5 Oeste 13 Oeste 0 -- -- 64
2019-04-22 11:00:00 13 3 Sudeste 8 Sudeste 0 -- -- 73
2019-04-22 10:00:00 9.9 2 Sudoeste 4 Sur 0 -- -- 83
2019-04-22 09:00:00 8.1 0 Calma 3 Oeste 0 -- -- 90
2019-04-22 08:00:00 6.7 0 Calma 5 Nordeste 0 -- -- 89
2019-04-22 07:00:00 7.1 3 Nordeste 4 Este 0 -- -- 88
2019-04-22 06:00:00 8 3 Este 5 Este 0 -- -- 84
2019-04-22 05:00:00 8.9 2 Nordeste 6 Nordeste 0 -- -- 81
2019-04-22 04:00:00 9.3 3 Nordeste 12 Norte 0 -- -- 79
2019-04-22 03:00:00 9.5 6 Nordeste 12 Norte 0 -- -- 78
2019-04-22 02:00:00 10 4 Nordeste 15 Nordeste 0 -- -- 76
2019-04-22 01:00:00 10.4 6 Nordeste 16 Nordeste 0 -- -- 74
2019-04-22 00:00:00 10.7 9 Norte 17 Norte 0 -- -- 72
2019-04-21 23:00:00 10.8 6 Nordeste 12 Nordeste 0 -- -- 72
2019-04-21 22:00:00 11.4 8 Nordeste 18 Norte 0 -- -- 69
2019-04-21 21:00:00 12.1 11 Norte 21 Nordeste 0 -- -- 67
2019-04-21 20:00:00 12.7 13 Norte 24 Norte 0 -- -- 64
2019-04-21 19:00:00 13 14 Norte 27 Norte 0 -- -- 64
2019-04-21 18:00:00 12.9 15 Norte 29 Nordeste 0 -- -- 65
2019-04-21 17:00:00 13.2 18 Nordeste 30 Nordeste 0 -- -- 63
2019-04-21 16:00:00 13.3 16 Nordeste 29 Nordeste 0 -- -- 64
2019-04-21 15:00:00 13.2 15 Nordeste 30 Nordeste 0 -- -- 61
2019-04-21 14:00:00 12.8 13 Nordeste 24 Nordeste 0 -- -- 64
2019-04-21 13:00:00 12.4 12 Nordeste 27 Nordeste 0 -- -- 66
2019-04-21 12:00:00 11.6 11 Nordeste 24 Nordeste 0 -- -- 72
2019-04-21 11:00:00 10.8 14 Nordeste 31 Norte 0 -- -- 72
2019-04-21 10:00:00 10.1 17 Nordeste 30 Norte 0 -- -- 74
2019-04-21 09:00:00 9.4 14 Nordeste 22 Nordeste 0 -- -- 75
2019-04-21 08:00:00 9.1 10 Nordeste 27 Norte 0 -- -- 75
2019-04-21 07:00:00 9.4 13 Nordeste 30 Norte 0 -- -- 75
2019-04-21 06:00:00 9.4 12 Nordeste 25 Nordeste 0 -- -- 76
2019-04-21 05:00:00 9.7 9 Nordeste 19 Nordeste 0 -- -- 80
2019-04-21 04:00:00 9.8 4 Nordeste 10 Nordeste 0 -- -- 83
2019-04-21 03:00:00 10 6 Nordeste 12 Nordeste 0 -- -- 80
2019-04-21 02:00:00 10.3 5 Nordeste 12 Este 0 -- -- 80
2019-04-21 01:00:00 10.6 10 Este 18 Este 0 -- -- 79
2019-04-21 00:00:00 11 12 Este 19 Este 0.2 -- -- 81
2019-04-20 23:00:00 11.9 4 Sur 7 Sudeste 1 -- -- 85
2019-04-20 22:00:00 12.5 6 Sudeste 18 Este 0.2 -- -- 79
2019-04-20 21:00:00 14.9 14 Este 28 Este 0 -- -- 53
2019-04-20 20:00:00 16.2 14 Este 26 Este 0 -- -- 50
2019-04-20 19:00:00 17.4 17 Este 32 Este 0 -- -- 48
2019-04-20 18:00:00 18.1 18 Nordeste 32 Nordeste 0 -- -- 45
2019-04-20 17:00:00 18.3 23 Este 41 Este 0 -- -- 45
2019-04-20 16:00:00 18.9 19 Nordeste 37 Este 0 -- -- 46
2019-04-20 15:00:00 18.3 15 Nordeste 40 Nordeste 0 -- -- 46
2019-04-20 14:00:00 18.2 15 Nordeste 40 Nordeste 0 -- -- 48
2019-04-20 13:00:00 17.3 17 Norte 32 Norte 0 -- -- 56
2019-04-20 12:00:00 15.9 24 Nordeste 39 Norte 0 -- -- 58
2019-04-20 11:00:00 13.6 23 Norte 37 Norte 0 -- -- 63
2019-04-20 10:00:00 12.5 20 Norte 42 Norte 0 -- -- 66
2019-04-20 09:00:00 12.4 26 Norte 39 Norte 0 -- -- 66
2019-04-20 08:00:00 11.8 17 Norte 39 Norte 0 -- -- 69
2019-04-20 07:00:00 11.6 23 Norte 37 Norte 0 -- -- 71
2019-04-20 06:00:00 11.5 23 Norte 33 Norte 0 -- -- 72
2019-04-20 05:00:00 11.3 14 Norte 35 Norte 0 -- -- 75
2019-04-20 04:00:00 10.3 7 Nordeste 23 Norte 0 -- -- 90
2019-04-20 03:00:00 9.5 3 Nordeste 8 Norte 0 -- -- 95
2019-04-20 02:00:00 9.5 0 Calma 6 Norte 0 -- -- 94
2019-04-20 01:00:00 9.8 3 Nordeste 9 Noroeste 0 -- -- 94
2019-04-20 00:00:00 10.1 5 Noroeste 8 Noroeste 0 -- -- 94
2019-04-19 23:00:00 10.3 3 Sudoeste 5 Sudoeste 0 -- -- 93
2019-04-19 22:00:00 10.3 0 Calma 7 Sur 0.2 -- -- 92
2019-04-19 21:00:00 10.4 2 Este 4 Este 0 -- -- 92
2019-04-19 20:00:00 10.3 0 Calma 4 Norte 0 -- -- 91
2019-04-19 19:00:00 10.5 0 Calma 4 Este 0.6 -- -- 91
2019-04-19 18:00:00 10.4 4 Este 12 Nordeste 1.2 -- -- 91
2019-04-19 17:00:00 10.7 6 Nordeste 14 Norte 1.4 -- -- 91
2019-04-19 16:00:00 10.8 6 Norte 16 Nordeste 2.2 -- -- 90
2019-04-19 15:00:00 11 10 Nordeste 17 Nordeste 1 -- -- 89
2019-04-19 14:00:00 11.3 10 Nordeste 16 Nordeste 0.8 -- -- 87
2019-04-19 13:00:00 11.9 11 Nordeste 21 Nordeste 0 -- -- 81
2019-04-19 12:00:00 12.3 9 Nordeste 18 Norte 0 -- -- 77
2019-04-19 11:00:00 11.5 6 Nordeste 15 Nordeste 0 -- -- 83
2019-04-19 10:00:00 10.9 6 Nordeste 12 Nordeste 0 -- -- 84
2019-04-19 09:00:00 10.2 5 Nordeste 11 Nordeste 0 -- -- 87
2019-04-19 08:00:00 9.8 5 Nordeste 11 Nordeste 0 -- -- 87
2019-04-19 07:00:00 9.8 5 Nordeste 11 Nordeste 0 -- -- 88
2019-04-19 06:00:00 9.9 6 Nordeste 15 Este 0 -- -- 88
2019-04-19 05:00:00 9.9 7 Nordeste 14 Nordeste 0 -- -- 88
2019-04-19 04:00:00 9.9 6 Nordeste 13 Nordeste 0 -- -- 88
2019-04-19 03:00:00 10.1 5 Nordeste 10 Este 0 -- -- 90
2019-04-19 02:00:00 10.3 4 Nordeste 13 Nordeste 0 -- -- 90
2019-04-19 01:00:00 10.2 3 Nordeste 8 Nordeste 0.2 -- -- 91
2019-04-19 00:00:00 10.4 5 Nordeste 8 Nordeste 0 -- -- 90
2019-04-18 23:00:00 10.5 4 Nordeste 11 Nordeste 0 -- -- 90
2019-04-18 22:00:00 10.8 5 Nordeste 10 Nordeste 0.6 -- -- 89
2019-04-18 21:00:00 11.3 4 Este 6 Este 0.6 -- -- 89
2019-04-18 20:00:00 11.7 3 Sudeste 10 Norte 0.2 -- -- 87
2019-04-18 19:00:00 11.5 6 Norte 14 Noroeste 0.4 -- -- 88
2019-04-18 18:00:00 11.5 5 Norte 15 Norte 0.6 -- -- 87
2019-04-18 17:00:00 12.6 3 Norte 10 Norte 0 -- -- 81
2019-04-18 16:00:00 12.2 3 Nordeste 13 Este 0 -- -- 83
2019-04-18 15:00:00 12.1 10 Este 18 Este 0 -- -- 82
2019-04-18 14:00:00 11.5 6 Nordeste 13 Este 0 -- -- 85
2019-04-18 13:00:00 11 8 Este 22 Este 0.8 -- -- 90
2019-04-18 12:00:00 10.4 12 Este 20 Este 2.6 -- -- 92
2019-04-18 11:00:00 10.7 7 Este 15 Este 2 -- -- 94
2019-04-18 10:00:00 10.7 4 Nordeste 23 Nordeste 0.8 -- -- 94
2019-04-18 09:00:00 10.4 8 Nordeste 16 Norte 5.4 -- -- 94
2019-04-18 08:00:00 10.7 7 Norte 14 Norte 0.8 -- -- 93
2019-04-18 07:00:00 10.8 4 Nordeste 8 Norte 2 -- -- 93
2019-04-18 06:00:00 10.9 5 Nordeste 12 Este 2.6 -- -- 93
2019-04-18 05:00:00 11.2 4 Este 13 Oeste 5.2 -- -- 91
2019-04-18 04:00:00 11.5 14 Oeste 23 Oeste 1.4 -- -- 88
2019-04-18 03:00:00 12.5 18 Sudeste 33 Sudeste 0.8 -- -- 87
2019-04-18 02:00:00 13.1 21 Sudeste 34 Sudeste 0.4 -- -- 85
2019-04-18 01:00:00 14.2 14 Sudeste 28 Sudeste 0.4 -- -- 82
2019-04-18 00:00:00 15.2 18 Sudeste 32 Sudeste 0.4 -- -- 78
2019-04-17 23:00:00 16 3 Sudoeste 13 Oeste 0.4 -- -- 77
2019-04-17 22:00:00 17.8 8 Oeste 24 Sudoeste 0 -- -- 57
2019-04-17 21:00:00 19.7 11 Sudoeste 22 Sudoeste 0 -- -- 47
2019-04-17 20:00:00 21.4 20 Sur 38 Sudeste 0 -- -- 49
2019-04-17 19:00:00 23.4 24 Sudeste 42 Sudeste 0 -- -- 37
2019-04-17 18:00:00 24.5 27 Sudeste 42 Este 0 -- -- 35
2019-04-17 17:00:00 25 23 Sudeste 39 Sudeste 0 -- -- 34
2019-04-17 16:00:00 25.5 18 Sudeste 31 Sudeste 0 -- -- 32
2019-04-17 15:00:00 24.6 19 Sudeste 40 Este 0 -- -- 35
2019-04-17 14:00:00 22.3 15 Sudeste 26 Este 0 -- -- 40
2019-04-17 13:00:00 20.2 13 Este 26 Sudeste 0 -- -- 46
2019-04-17 12:00:00 18.6 15 Sudeste 27 Sudeste 0 -- -- 50
2019-04-17 11:00:00 15.8 9 Nordeste 19 Nordeste 0 -- -- 59
2019-04-17 10:00:00 13.3 8 Nordeste 20 Este 0 -- -- 67
2019-04-17 09:00:00 11.7 9 Sudeste 20 Sudeste 0 -- -- 72
2019-04-17 08:00:00 10.3 6 Este 20 Nordeste 0 -- -- 76
2019-04-17 07:00:00 10.7 7 Sudeste 23 Sudeste 0 -- -- 74
2019-04-17 06:00:00 11.5 6 Sudeste 17 Sur 0 -- -- 69
2019-04-17 05:00:00 12.2 5 Sudoeste 23 Sudoeste 0 -- -- 67
2019-04-17 04:00:00 12.6 18 Sudeste 29 Este 0 -- -- 65
2019-04-17 03:00:00 13.3 16 Sudeste 39 Sudeste 0 -- -- 65
2019-04-17 02:00:00 13.8 23 Sudeste 48 Sudeste 0 -- -- 64
2019-04-17 01:00:00 15 30 Sudeste 51 Sudeste 0 -- -- 60
2019-04-17 00:00:00 16.4 28 Sudeste 44 Sudeste 0 -- -- 58
2019-04-16 23:00:00 15.1 6 Nordeste 10 Norte 0 -- -- 42
2019-04-16 22:00:00 16.4 3 Nordeste 8 Sudeste 0 -- -- 39
2019-04-16 21:00:00 19.7 5 Sudeste 16 Sudeste 0 -- -- 32
2019-04-16 20:00:00 22.2 13 Sudeste 23 Sudeste 0 -- -- 28
2019-04-16 19:00:00 22.8 10 Sudeste 23 Sur 0 -- -- 28
2019-04-16 18:00:00 23.5 10 Sudeste 23 Sudoeste 0 -- -- 29
2019-04-16 17:00:00 23.2 14 Sudeste 28 Sudeste 0 -- -- 30
2019-04-16 16:00:00 22.9 14 Sudeste 27 Sudeste 0 -- -- 30
2019-04-16 15:00:00 21.2 6 Sur 19 Sur 0 -- -- 28
2019-04-16 14:00:00 20.4 12 Sudeste 29 Sudoeste 0 -- -- 35
2019-04-16 13:00:00 19.1 8 Sudeste 22 Sudeste 0 -- -- 40
2019-04-16 12:00:00 17.5 6 Sur 13 Sur 0 -- -- 47
2019-04-16 11:00:00 15.4 3 Norte 8 Norte 0 -- -- 56
2019-04-16 10:00:00 12.3 2 Este 5 Nordeste 0 -- -- 67
2019-04-16 09:00:00 9 3 Este 9 Este 0 -- -- 77
2019-04-16 08:00:00 5.4 0 Calma 5 Nordeste 0 -- -- 87
2019-04-16 07:00:00 5.3 2 Sur 3 Sur 0 -- -- 84
2019-04-16 06:00:00 6.3 0 Calma 3 Oeste 0 -- -- 82
2019-04-16 05:00:00 7.1 0 Calma 5 Sudeste 0 -- -- 80
2019-04-16 04:00:00 8.1 0 Calma 4 Sudoeste 0 -- -- 75
2019-04-16 03:00:00 8.9 3 Oeste 7 Sudoeste 0 -- -- 74
2019-04-16 02:00:00 10.4 5 Este 8 Este 0 -- -- 67
2019-04-16 01:00:00 11.8 6 Sur 26 Oeste 0 -- -- 61
2019-04-16 00:00:00 13.5 15 Sudoeste 24 Oeste 0 -- -- 56
2019-04-15 23:00:00 14.9 5 Noroeste 24 Noroeste 0 -- -- 52
2019-04-15 22:00:00 16.6 11 Noroeste 40 Oeste 0 -- -- 50
2019-04-15 21:00:00 18.5 26 Oeste 46 Oeste 0 -- -- 48
2019-04-15 20:00:00 21.5 29 Oeste 48 Oeste 0 -- -- 40
2019-04-15 19:00:00 24.3 26 Oeste 53 Sudoeste 0 -- -- 35
2019-04-15 18:00:00 25 36 Sudoeste 59 Sudoeste 0 -- -- 25
2019-04-15 17:00:00 25.9 28 Sudoeste 45 Oeste 0 -- -- 30
2019-04-15 16:00:00 24.7 22 Sudoeste 45 Sur 0 -- -- 37
2019-04-15 15:00:00 24.8 24 Sur 42 Sudoeste 0 -- -- 38
2019-04-15 14:00:00 23.8 16 Sur 33 Sur 0 -- -- 45
2019-04-15 13:00:00 22 13 Sur 26 Sudoeste 0 -- -- 52
2019-04-15 12:00:00 18.5 5 Sudoeste 10 Oeste 0 -- -- 60
2019-04-15 11:00:00 18.1 4 Sudoeste 9 Nordeste 0 -- -- 62
2019-04-15 10:00:00 15.3 6 Nordeste 12 Nordeste 0 -- -- 71
2019-04-15 09:00:00 12.5 3 Nordeste 6 Nordeste 0 -- -- 80
2019-04-15 08:00:00 11 0 Calma 5 Nordeste 0 -- -- 81
2019-04-15 07:00:00 10.9 2 Este 9 Nordeste 0 -- -- 79
2019-04-15 06:00:00 11.2 3 Nordeste 5 Nordeste 0 -- -- 84
2019-04-15 05:00:00 11.3 0 Calma 7 Nordeste 0 -- -- 80
2019-04-15 04:00:00 12 0 Calma 5 Sudoeste 0 -- -- 80
2019-04-15 03:00:00 12.8 0 Calma 5 Nordeste 0 -- -- 73
2019-04-15 02:00:00 14.1 2 Noroeste 5 Nordeste 0 -- -- 70
2019-04-15 01:00:00 14.6 2 Sudoeste 4 Nordeste 0 -- -- 65
2019-04-15 00:00:00 16.2 2 Este 10 Sur 0 -- -- 64
2019-04-14 23:00:00 16.9 8 Sur 13 Sudoeste 0 -- -- 59
2019-04-14 22:00:00 18 8 Sudoeste 9 Sudoeste 0 -- -- 53
2019-04-14 21:00:00 20.8 6 Sudoeste 18 Sudoeste 0 -- -- 45
2019-04-14 20:00:00 23.6 13 Sudoeste 22 Sudoeste 0 -- -- 39
2019-04-14 19:00:00 24.8 12 Sudoeste 23 Sudoeste 0 -- -- 35
2019-04-14 18:00:00 24.9 12 Oeste 42 Oeste 0 -- -- 35
2019-04-14 17:00:00 24.6 14 Oeste 25 Oeste 0 -- -- 37
2019-04-14 16:00:00 24.5 15 Sudoeste 26 Sudoeste 0 -- -- 37
2019-04-14 15:00:00 23.7 10 Oeste 19 Sur 0 -- -- 39
2019-04-14 14:00:00 22.2 11 Sudoeste 21 Sur 0 -- -- 45
2019-04-14 13:00:00 20.5 12 Sur 20 Sur 0 -- -- 50
2019-04-14 12:00:00 17.9 8 Sudoeste 14 Sur 0 -- -- 56
2019-04-14 11:00:00 15.5 7 Oeste 10 Sudoeste 0 -- -- 61
2019-04-14 10:00:00 12.7 3 Este 7 Este 0 -- -- 60
2019-04-14 09:00:00 9.7 4 Nordeste 7 Nordeste 0 -- -- 63
2019-04-14 08:00:00 7.4 2 Nordeste 9 Nordeste 0 -- -- 63
2019-04-14 07:00:00 8 4 Nordeste 9 Nordeste 0 -- -- 60
2019-04-14 06:00:00 8.6 5 Nordeste 7 Nordeste 0 -- -- 65
2019-04-14 05:00:00 8.4 0 Calma 2 Sur 0 -- -- 66
2019-04-14 04:00:00 8.3 0 Calma 3 Sudeste 0 -- -- 60
2019-04-14 03:00:00 9.5 0 Calma 3 Este 0 -- -- 55
2019-04-14 02:00:00 10.5 3 Sudeste 9 Nordeste 0 -- -- 50
2019-04-14 01:00:00 12.9 4 Sudoeste 10 Oeste 0 -- -- 44
2019-04-14 00:00:00 13.5 5 Oeste 10 Sudoeste 0 -- -- 37
2019-04-13 23:00:00 14.7 2 Sudeste 8 Sudoeste 0 -- -- 31
2019-04-13 22:00:00 15.6 7 Sur 11 Sudoeste 0 -- -- 28
2019-04-13 21:00:00 18.1 5 Sudoeste 15 Sudoeste 0 -- -- 24
2019-04-13 20:00:00 21.8 9 Sudoeste 16 Sudoeste 0 -- -- 18
2019-04-13 19:00:00 22.7 8 Sudoeste 21 Sudoeste 0 -- -- 13
2019-04-13 18:00:00 23.1 9 Oeste 19 Sudoeste 0 -- -- 14
2019-04-13 17:00:00 22.5 4 Sudeste 15 Este 0 -- -- 15
2019-04-13 16:00:00 22.3 8 Noroeste 15 Norte 0 -- -- 14
2019-04-13 15:00:00 20.7 8 Norte 15 Norte 0 -- -- 17
2019-04-13 14:00:00 19.7 4 Sudeste 12 Sudeste 0 -- -- 24
2019-04-13 13:00:00 17.7 6 Sur 13 Sudoeste 0 -- -- 27
2019-04-13 12:00:00 15.7 4 Sur 10 Este 0 -- -- 34
2019-04-13 11:00:00 12.7 2 Este 9 Este 0 -- -- 46
2019-04-13 10:00:00 8.8 8 Este 12 Este 0 -- -- 57
2019-04-13 09:00:00 5.2 3 Este 5 Este 0 -- -- 71
2019-04-13 08:00:00 2.2 3 Nordeste 7 Nordeste 0 -- -- 77
2019-04-13 07:00:00 1.9 4 Nordeste 8 Nordeste 0 -- -- 79
2019-04-13 06:00:00 2 2 Nordeste 4 Este 0 -- -- 78
2019-04-13 05:00:00 3.6 2 Noroeste 6 Nordeste 0 -- -- 72
2019-04-13 04:00:00 3.6 2 Nordeste 3 Nordeste 0 -- -- 75
2019-04-13 03:00:00 4.8 0 Calma 4 Sudoeste 0 -- -- 67
2019-04-13 02:00:00 6.7 2 Sur 5 Sudoeste 0 -- -- 60
2019-04-13 01:00:00 7.9 2 Este 7 Noroeste 0 -- -- 58
2019-04-13 00:00:00 10.1 3 Noroeste 5 Noroeste 0 -- -- 50
2019-04-12 23:00:00 11.9 3 Este 8 Este 0 -- -- 43
2019-04-12 22:00:00 14.4 3 Nordeste 23 Norte 0 -- -- 38
2019-04-12 21:00:00 16.7 7 Norte 12 Nordeste 0 -- -- 33
2019-04-12 20:00:00 19.5 4 Sudeste 10 Sur 0 -- -- 29
2019-04-12 19:00:00 20.2 5 Sur 14 Este 0 -- -- 27
2019-04-12 18:00:00 20 6 Sur 21 Este 0 -- -- 28
2019-04-12 17:00:00 19.2 5 Este 17 Norte 0 -- -- 29
2019-04-12 16:00:00 18.7 8 Sudoeste 23 Sudoeste 0 -- -- 31
2019-04-12 15:00:00 16.9 9 Sudoeste 24 Sudoeste 0 -- -- 36
2019-04-12 14:00:00 15.6 7 Oeste 21 Oeste 0 -- -- 39
2019-04-12 13:00:00 14.6 5 Oeste 15 Sudoeste 0 -- -- 42
2019-04-12 12:00:00 13.3 6 Nordeste 13 Nordeste 0 -- -- 49
2019-04-12 11:00:00 10.8 4 Este 8 Sudeste 0 -- -- 57
2019-04-12 10:00:00 8 3 Nordeste 7 Este 0 -- -- 69
2019-04-12 09:00:00 4.5 3 Nordeste 5 Este 0 -- -- 83
2019-04-12 08:00:00 1.4 2 Este 6 Nordeste 0 -- -- 87
2019-04-12 07:00:00 1 2 Sur 3 Sudeste 0 -- -- 86
2019-04-12 06:00:00 1.7 -- -- -- -- 0 -- -- 82
2019-04-12 05:00:00 2.5 3 Sur 8 Oeste 0 -- -- 82
2019-04-12 04:00:00 4.1 0 Calma 3 Noroeste 0 -- -- 76
2019-04-12 03:00:00 4.6 2 Sudeste 6 Sur 0 -- -- 73
2019-04-12 02:00:00 5.6 4 Sudeste 8 Sur 0 -- -- 69
2019-04-12 01:00:00 8 4 Nordeste 14 Nordeste 0 -- -- 59
2019-04-12 00:00:00 9.6 8 Nordeste 13 Norte 0 -- -- 52
2019-04-11 23:00:00 10.2 9 Nordeste 28 Norte 0 -- -- 50
2019-04-11 22:00:00 12.5 17 Norte 28 Norte 0 -- -- 42
2019-04-11 21:00:00 13.7 18 Norte 29 Norte 0 -- -- 40
2019-04-11 20:00:00 15.4 17 Norte 32 Norte 0 -- -- 34
2019-04-11 19:00:00 16.8 17 Norte 36 Noroeste 0 -- -- 31
2019-04-11 18:00:00 17.3 18 Norte 33 Norte 0 -- -- 31
2019-04-11 17:00:00 17.6 19 Norte 33 Norte 0 -- -- 31
2019-04-11 16:00:00 17.3 18 Norte 43 Norte 0 -- -- 30
2019-04-11 15:00:00 16.8 17 Norte 36 Norte 0 -- -- 35
2019-04-11 14:00:00 16.3 19 Norte 34 Noroeste 0 -- -- 38
2019-04-11 13:00:00 15.2 22 Norte 40 Norte 0 -- -- 39
2019-04-11 12:00:00 13.3 13 Nordeste 27 Norte 0 -- -- 51
2019-04-11 11:00:00 11.1 9 Norte 22 Nordeste 0 -- -- 59
2019-04-11 10:00:00 7.1 3 Sudeste 6 Sur 0 -- -- 83
2019-04-11 09:00:00 3.2 0 Calma 5 Sudoeste 0 -- -- 93
2019-04-11 08:00:00 1 0 Calma 6 Sudoeste 0 -- -- 92
2019-04-11 07:00:00 1.5 0 Calma 6 Este 0 -- -- 90
2019-04-11 06:00:00 2.1 3 Sudeste 6 Este 0 -- -- 89
2019-04-11 05:00:00 2.9 4 Este 8 Nordeste 0 -- -- 87
2019-04-11 04:00:00 3.2 0 Calma 6 Este 0 -- -- 85
2019-04-11 03:00:00 3.9 0 Calma 7 Este 0 -- -- 84
2019-04-11 02:00:00 4.5 0 Calma 6 Este 0 -- -- 84
2019-04-11 01:00:00 5.5 3 Este 6 Nordeste 0 -- -- 84
2019-04-11 00:00:00 5.9 3 Sur 10 Nordeste 0 -- -- 77
2019-04-10 23:00:00 8.3 0 Calma 6 Sudeste 0 -- -- 69
2019-04-10 22:00:00 9.9 3 Sur 14 Norte 0 -- -- 59
2019-04-10 21:00:00 11.6 9 Norte 20 Norte 0 -- -- 53
2019-04-10 20:00:00 13 13 Norte 23 Norte 0 -- -- 48
2019-04-10 19:00:00 14.4 11 Norte 33 Norte 0 -- -- 46
2019-04-10 18:00:00 15.7 8 Norte 23 Norte 0 -- -- 43
2019-04-10 17:00:00 14.8 8 Norte 26 Nordeste 0 -- -- 44
2019-04-10 16:00:00 14.8 13 Noroeste 22 Noroeste 0 -- -- 48
2019-04-10 15:00:00 13.1 9 Noroeste 22 Noroeste 0 -- -- 53
2019-04-10 14:00:00 12.3 15 Noroeste 34 Oeste 0 -- -- 51
2019-04-10 13:00:00 12 19 Oeste 33 Oeste 0 -- -- 53
2019-04-10 12:00:00 12 22 Oeste 39 Oeste 0.2 -- -- 54
2019-04-10 11:00:00 11.4 18 Oeste 30 Oeste 0 -- -- 58
2019-04-10 10:00:00 10.3 14 Oeste 24 Oeste 0 -- -- 65
2019-04-10 09:00:00 7.7 6 Sur 10 Sur 0 -- -- 75
2019-04-10 08:00:00 5.2 2 Sudeste 9 Sudeste 0 -- -- 78
2019-04-10 07:00:00 7.3 6 Noroeste 24 Oeste 0 -- -- 70
2019-04-10 06:00:00 8 12 Oeste 26 Oeste 0 -- -- 67
2019-04-10 05:00:00 8.2 12 Oeste 23 Oeste 0 -- -- 67
2019-04-10 04:00:00 7.9 11 Oeste 18 Sudoeste 0 -- -- 71
2019-04-10 03:00:00 8 9 Oeste 22 Oeste 0 -- -- 75
2019-04-10 02:00:00 7.9 13 Oeste 22 Oeste 0 -- -- 76
2019-04-10 01:00:00 7.6 10 Oeste 19 Oeste 0 -- -- 78
2019-04-10 00:00:00 8.7 24 Oeste 49 Oeste 0.2 -- -- 76
2019-04-09 23:00:00 9.2 9 Oeste 25 Oeste 0 -- -- 64
2019-04-09 22:00:00 10.4 12 Oeste 26 Noroeste 0 -- -- 58
2019-04-09 21:00:00 11 17 Oeste 36 Oeste 0 -- -- 62
2019-04-09 20:00:00 12.2 16 Sudoeste 30 Oeste 0 -- -- 60
2019-04-09 19:00:00 13.2 21 Oeste 34 Oeste 0 -- -- 62
2019-04-09 18:00:00 12.1 4 Norte 41 Noroeste 2.6 -- -- 72
2019-04-09 17:00:00 12.2 18 Noroeste 33 Oeste 0.6 -- -- 70
2019-04-09 16:00:00 10 14 Sudoeste 54 Oeste 0.6 -- -- 75
2019-04-09 15:00:00 10.6 26 Oeste 43 Sudoeste 0 -- -- 75
2019-04-09 14:00:00 8.4 14 Sudoeste 45 Sudoeste 0.8 -- -- 84
2019-04-09 13:00:00 11 23 Oeste 36 Sudoeste 0 -- -- 69
2019-04-09 12:00:00 9.7 21 Sudoeste 40 Sudoeste 0 -- -- 75
2019-04-09 11:00:00 9.7 24 Sudoeste 38 Oeste 0 -- -- 76
2019-04-09 10:00:00 8.8 16 Sudoeste 24 Sudoeste 0 -- -- 80
2019-04-09 09:00:00 7.5 9 Sudoeste 19 Sudoeste 0 -- -- 87
2019-04-09 08:00:00 5.8 7 Sur 18 Sudoeste 0 -- -- 89
2019-04-09 07:00:00 5.9 10 Sudoeste 17 Sudoeste 0 -- -- 88
2019-04-09 06:00:00 6.2 5 Sur 18 Sur 0 -- -- 85
2019-04-09 05:00:00 7.1 13 Sur 18 Sur 0 -- -- 83
2019-04-09 04:00:00 7 13 Sudoeste 19 Sudoeste 0 -- -- 82
2019-04-09 03:00:00 7.1 10 Sudoeste 15 Sudoeste 0 -- -- 81
2019-04-09 02:00:00 8.4 9 Sudoeste 12 Sudoeste 0 -- -- 74
2019-04-09 01:00:00 9 3 Sudoeste 8 Nordeste 0 -- -- 74
2019-04-09 00:00:00 10 6 Nordeste 32 Noroeste 0 -- -- 67
2019-04-08 23:00:00 11.1 18 Noroeste 32 Noroeste 0 -- -- 59
2019-04-08 22:00:00 12.4 5 Oeste 20 Noroeste 0 -- -- 59
2019-04-08 21:00:00 13.6 13 Oeste 34 Oeste 0 -- -- 52
2019-04-08 20:00:00 15.2 26 Oeste 38 Oeste 0 -- -- 39
2019-04-08 19:00:00 16.7 26 Sudoeste 41 Oeste 0 -- -- 37
2019-04-08 18:00:00 17.2 27 Sudoeste 48 Sudoeste 0 -- -- 34
2019-04-08 17:00:00 17.3 30 Sudoeste 44 Oeste 0 -- -- 39
2019-04-08 16:00:00 17 26 Sudoeste 51 Sudoeste 0 -- -- 44
2019-04-08 15:00:00 16.5 31 Sudoeste 47 Sudoeste 0.2 -- -- 47
2019-04-08 14:00:00 15.6 30 Sudoeste 49 Sudoeste 0 -- -- 52
2019-04-08 13:00:00 14 21 Sudoeste 30 Sudoeste 0 -- -- 73
2019-04-08 12:00:00 12.1 17 Sudoeste 30 Sudoeste 0 -- -- 85
2019-04-08 11:00:00 10.7 12 Sudoeste 21 Sudoeste 0 -- -- 92
2019-04-08 10:00:00 10 8 Sudoeste 12 Sudoeste 0 -- -- 94
2019-04-08 09:00:00 9.6 7 Sur 13 Sudoeste 1.2 -- -- 94
2019-04-08 08:00:00 9.4 8 Sudoeste 12 Sur 0.4 -- -- 94
2019-04-08 07:00:00 9.3 7 Sudoeste 11 Sudoeste 0.2 -- -- 93
2019-04-08 06:00:00 9 5 Sudoeste 12 Sudoeste 0 -- -- 93
2019-04-08 05:00:00 8.9 7 Sudoeste 9 Sudoeste 0 -- -- 92
2019-04-08 04:00:00 8.7 4 Sudoeste 6 Sudoeste 0 -- -- 91
2019-04-08 03:00:00 8.7 0 Calma 4 Este 0 -- -- 91
2019-04-08 02:00:00 8.6 3 Sudeste 5 Sudeste 0 -- -- 91
2019-04-08 01:00:00 8.7 3 Sudeste 8 Sudeste 0 -- -- 89
2019-04-08 00:00:00 9 0 Calma 5 Sudeste 0.2 -- -- 87
2019-04-07 23:00:00 9 3 Sudeste 6 Sur 0 -- -- 86
2019-04-07 22:00:00 9.2 4 Sur 13 Sudoeste 0.2 -- -- 85
2019-04-07 21:00:00 9.4 6 Sudoeste 12 Oeste 0 -- -- 82
2019-04-07 20:00:00 10 12 Oeste 23 Oeste 0.4 -- -- 75
2019-04-07 19:00:00 11.1 2 Sur 27 Oeste 0.2 -- -- 65
2019-04-07 18:00:00 12.3 24 Sudoeste 39 Sudoeste 0 -- -- 55
2019-04-07 17:00:00 13.6 23 Sudoeste 33 Sudoeste 0 -- -- 46
2019-04-07 16:00:00 13.9 17 Oeste 35 Oeste 0 -- -- 43
2019-04-07 15:00:00 13.6 16 Oeste 31 Oeste 0 -- -- 45
2019-04-07 14:00:00 12.8 17 Oeste 34 Oeste 0 -- -- 41
2019-04-07 13:00:00 11.8 18 Oeste 43 Oeste 0 -- -- 44
2019-04-07 12:00:00 11.2 21 Oeste 40 Oeste 0 -- -- 50
2019-04-07 11:00:00 10.1 21 Oeste 34 Oeste 0 -- -- 55
2019-04-07 10:00:00 7.8 19 Sudoeste 32 Sudoeste 0 -- -- 70
2019-04-07 09:00:00 5.8 13 Sudoeste 30 Sudoeste 0 -- -- 81
2019-04-07 08:00:00 4.2 14 Sudoeste 22 Sudoeste 0 -- -- 89
2019-04-07 07:00:00 4.5 12 Sudoeste 21 Sudoeste 0 -- -- 88
2019-04-07 06:00:00 5.5 15 Sudoeste 24 Sudoeste 0 -- -- 84
2019-04-07 05:00:00 5.5 19 Sudoeste 28 Oeste 0 -- -- 85
2019-04-07 04:00:00 6 17 Oeste 30 Oeste 0 -- -- 81
2019-04-07 03:00:00 5.9 11 Sudoeste 20 Sudoeste 0 -- -- 82
2019-04-07 02:00:00 6.1 10 Sudoeste 26 Sudoeste 0 -- -- 79
2019-04-07 01:00:00 5.6 16 Oeste 26 Oeste 0 -- -- 80
2019-04-07 00:00:00 5.1 7 Sudoeste 29 Sudoeste 0 -- -- 80
2019-04-06 23:00:00 6.6 22 Oeste 37 Sudoeste 0 -- -- 73
2019-04-06 22:00:00 7.4 23 Oeste 32 Sudoeste 0 -- -- 70
2019-04-06 21:00:00 8.4 19 Sudoeste 45 Sudoeste 0 -- -- 68
2019-04-06 20:00:00 9.4 30 Oeste 54 Sudoeste 0 -- -- 64
2019-04-06 19:00:00 10.8 32 Sudoeste 50 Oeste 0 -- -- 55
2019-04-06 18:00:00 11.3 33 Sudoeste 55 Sudoeste 0 -- -- 55
2019-04-06 17:00:00 11.9 32 Sudoeste 48 Sudoeste 0 -- -- 58
2019-04-06 16:00:00 10.3 35 Sudoeste 50 Sudoeste 0 -- -- 63
2019-04-06 15:00:00 10.5 35 Sudoeste 51 Sudoeste 0 -- -- 68
2019-04-06 14:00:00 9.3 24 Oeste 40 Oeste 0.2 -- -- 76
2019-04-06 13:00:00 6 18 Oeste 36 Sudoeste 1 -- -- 86
2019-04-06 12:00:00 6.7 20 Sudoeste 40 Sudoeste 0.2 -- -- 85
2019-04-06 11:00:00 6.5 18 Sudoeste 27 Sudoeste 0 -- -- 83
2019-04-06 10:00:00 5.8 16 Sudoeste 28 Sudoeste 0 -- -- 82
2019-04-06 09:00:00 4.9 10 Sudoeste 23 Sudoeste 0 -- -- 85
2019-04-06 08:00:00 4.1 16 Sudoeste 28 Oeste 0 -- -- 87
2019-04-06 07:00:00 3.6 14 Sudoeste 30 Sudoeste 0 -- -- 87
2019-04-06 06:00:00 3.6 20 Sudoeste 31 Oeste 0 -- -- 88
2019-04-06 05:00:00 3.8 17 Oeste 32 Sudoeste 0 -- -- 87
2019-04-06 04:00:00 5.1 15 Sudoeste 27 Sudoeste 0 -- -- 87
2019-04-06 03:00:00 5.4 15 Sudoeste 23 Sudoeste 0 -- -- 83
2019-04-06 02:00:00 5 9 Sudoeste 20 Sur 0 -- -- 86
2019-04-06 01:00:00 5.2 12 Sudoeste 27 Sudoeste 0 -- -- 83
2019-04-06 00:00:00 5.1 17 Sudoeste 26 Oeste 0 -- -- 82
2019-04-05 23:00:00 5 14 Sudoeste 20 Sudoeste 0 -- -- 81
2019-04-05 22:00:00 4.6 5 Sur 12 Sudoeste 0 -- -- 82
2019-04-05 21:00:00 5.9 9 Sudoeste 18 Oeste 0 -- -- 75
2019-04-05 20:00:00 7.4 14 Oeste 40 Oeste 0 -- -- 70
2019-04-05 19:00:00 7.3 23 Oeste 47 Oeste 0 -- -- 70
2019-04-05 18:00:00 9.5 22 Sudoeste 37 Oeste 0 -- -- 71
2019-04-05 17:00:00 9.3 16 Sudoeste 32 Sudoeste 0 -- -- 72
2019-04-05 16:00:00 8.9 14 Oeste 24 Sudoeste 0.2 -- -- 80
2019-04-05 15:00:00 7 17 Oeste 43 Oeste 1.2 -- -- 88
2019-04-05 14:00:00 9.3 15 Sur 35 Sur 0 -- -- 82
2019-04-05 13:00:00 8.5 19 Sur 28 Sur 0 -- -- 82
2019-04-05 12:00:00 7.2 15 Sur 24 Sudeste 0 -- -- 87
2019-04-05 11:00:00 6.8 8 Sur 21 Sudoeste 1.4 -- -- 90
2019-04-05 10:00:00 7 6 Sur 15 Sur 1.2 -- -- 88
2019-04-05 09:00:00 7.1 5 Sur 13 Sudoeste 0 -- -- 84
2019-04-05 08:00:00 6.6 4 Sudoeste 10 Sudeste 0 -- -- 86
2019-04-05 07:00:00 6.6 6 Sudeste 13 Sur 0 -- -- 87
2019-04-05 06:00:00 6.5 8 Sur 19 Sur 0.2 -- -- 85
2019-04-05 05:00:00 6.8 14 Sudoeste 29 Oeste 0 -- -- 81
2019-04-05 04:00:00 7.8 17 Sudoeste 32 Oeste 0 -- -- 73
2019-04-05 03:00:00 9.1 17 Oeste 43 Oeste 0 -- -- 58
2019-04-05 02:00:00 10.6 19 Sudoeste 36 Sudoeste 0 -- -- 41
2019-04-05 01:00:00 10.4 9 Sudoeste 21 Sudoeste 0 -- -- 43
2019-04-05 00:00:00 10.5 6 Sudoeste 9 Sudoeste 0 -- -- 42
2019-04-04 23:00:00 10.1 4 Sur 6 Sur 0 -- -- 41
2019-04-04 22:00:00 10.2 5 Sur 6 Sur 0 -- -- 39
2019-04-04 21:00:00 11.7 5 Oeste 16 Oeste 0 -- -- 35
2019-04-04 20:00:00 14.5 14 Oeste 27 Sudoeste 0 -- -- 29
2019-04-04 19:00:00 15.1 17 Sudoeste 31 Oeste 0 -- -- 28
2019-04-04 18:00:00 15.8 17 Sudoeste 36 Sudoeste 0 -- -- 22
2019-04-04 17:00:00 14.5 18 Sudoeste 30 Oeste 0 -- -- 24
2019-04-04 16:00:00 14.5 11 Sur 27 Sudoeste 0 -- -- 23
2019-04-04 15:00:00 13.8 12 Sudoeste 26 Sur 0 -- -- 25
2019-04-04 14:00:00 12.5 11 Sur 23 Sudoeste 0 -- -- 34
2019-04-04 13:00:00 10.9 8 Sudoeste 21 Sudoeste 0 -- -- 34
2019-04-04 12:00:00 9.3 6 Sudoeste 14 Sudoeste 0 -- -- 36
2019-04-04 11:00:00 8.2 5 Sur 14 Oeste 0 -- -- 43
2019-04-04 10:00:00 6.2 3 Sudoeste 6 Sur 0 -- -- 47
2019-04-04 09:00:00 3.3 3 Sudeste 5 Este 0 -- -- 57
2019-04-04 08:00:00 1.3 2 Nordeste 7 Norte 0 -- -- 61
2019-04-04 07:00:00 3.3 4 Noroeste 15 Norte 0 -- -- 53
2019-04-04 06:00:00 3.4 5 Norte 11 Nordeste 0 -- -- 54
2019-04-04 05:00:00 5.1 8 Norte 17 Norte 0 -- -- 49
2019-04-04 04:00:00 6.5 11 Norte 21 Norte 0 -- -- 45
2019-04-04 03:00:00 7 11 Norte 26 Norte 0 -- -- 43
2019-04-04 02:00:00 7.3 12 Norte 23 Norte 0 -- -- 43
2019-04-04 01:00:00 8.2 13 Norte 21 Norte 0 -- -- 43
2019-04-04 00:00:00 8.4 9 Norte 18 Norte 0 -- -- 45
2019-04-03 23:00:00 9.8 12 Norte 30 Norte 0 -- -- 40
2019-04-03 22:00:00 11.5 10 Norte 25 Norte 0 -- -- 31
2019-04-03 21:00:00 12.7 17 Noroeste 32 Noroeste 0 -- -- 30
2019-04-03 20:00:00 13.5 15 Noroeste 39 Noroeste 0 -- -- 29
2019-04-03 19:00:00 15 18 Noroeste 35 Noroeste 0 -- -- 29
2019-04-03 18:00:00 15.1 17 Noroeste 37 Noroeste 0 -- -- 31
2019-04-03 17:00:00 15.5 22 Noroeste 37 Noroeste 0 -- -- 32
2019-04-03 16:00:00 16.1 22 Noroeste 38 Noroeste 0 -- -- 37
2019-04-03 15:00:00 17.2 20 Noroeste 41 Noroeste 0 -- -- 37
2019-04-03 14:00:00 17.3 17 Noroeste 33 Noroeste 0 -- -- 38
2019-04-03 13:00:00 16.3 18 Oeste 35 Oeste 0 -- -- 44
2019-04-03 12:00:00 14.8 14 Sudoeste 24 Sudoeste 0 -- -- 50
2019-04-03 11:00:00 12.7 5 Sudoeste 13 Sudoeste 0 -- -- 61
2019-04-03 10:00:00 8.7 2 Oeste 5 Oeste 0 -- -- 85
2019-04-03 09:00:00 5.7 0 Calma 2 Noroeste 0 -- -- 96
2019-04-03 08:00:00 3.4 0 Calma 5 Noroeste 0 -- -- 92
2019-04-03 07:00:00 4.4 0 Calma 2 Sudoeste 0 -- -- 92
2019-04-03 06:00:00 4.9 0 Calma 4 Sudoeste 0 -- -- 91
2019-04-03 05:00:00 5.9 0 Calma 3 Sudoeste 0 -- -- 87
2019-04-03 04:00:00 7.8 0 Calma 5 Sur 0 -- -- 86
2019-04-03 03:00:00 8.8 0 Calma 3 Sur 0 -- -- 86
2019-04-03 02:00:00 8.7 0 Calma 4 Sudeste 0 -- -- 87
2019-04-03 01:00:00 9 3 Sudeste 4 Sur 0 -- -- 84
2019-04-03 00:00:00 10.4 3 Oeste 4 Oeste 0 -- -- 81
2019-04-02 23:00:00 11 2 Noroeste 5 Oeste 0 -- -- 80
2019-04-02 22:00:00 11.7 3 Sudoeste 16 Sur 0 -- -- 74
2019-04-02 21:00:00 13.4 7 Sur 23 Sur 0 -- -- 69
2019-04-02 20:00:00 15.7 15 Sur 24 Sudoeste 0 -- -- 61
2019-04-02 19:00:00 16.3 12 Sudoeste 23 Sudoeste 0 -- -- 56
2019-04-02 18:00:00 15.9 16 Sudoeste 26 Sudoeste 0 -- -- 62
2019-04-02 17:00:00 16.2 7 Sur 34 Noroeste 0.2 -- -- 60
2019-04-02 16:00:00 16.6 22 Noroeste 39 Noroeste 0 -- -- 55
2019-04-02 15:00:00 19.4 14 Sudoeste 53 Oeste 0 -- -- 44
2019-04-02 14:00:00 17.8 7 Sur 15 Sudoeste 0 -- -- 53
2019-04-02 13:00:00 15.7 9 Sur 17 Sudoeste 0 -- -- 62
2019-04-02 12:00:00 13.4 8 Sudoeste 12 Sudoeste 0 -- -- 74
2019-04-02 11:00:00 11.5 4 Sudoeste 10 Sudoeste 0 -- -- 82
2019-04-02 10:00:00 10.2 3 Sudoeste 6 Sudoeste 0 -- -- 88
2019-04-02 09:00:00 9.2 0 Calma 6 Oeste 0 -- -- 91
2019-04-02 08:00:00 8.5 2 Oeste 4 Oeste 0 -- -- 91
2019-04-02 07:00:00 8.3 0 Calma 3 Noroeste 0 -- -- 91
2019-04-02 06:00:00 8.7 0 Calma 6 Sudoeste 0.2 -- -- 89
2019-04-02 05:00:00 9.1 0 Calma 8 Oeste 0 -- -- 88
2019-04-02 04:00:00 10.1 3 Sudoeste 4 Noroeste 0.2 -- -- 87
2019-04-02 03:00:00 10.5 2 Sudeste 8 Sur 0.4 -- -- 86
2019-04-02 02:00:00 10.8 3 Sur 5 Noroeste 0.2 -- -- 83
2019-04-02 01:00:00 11.3 0 Calma 4 Este 0 -- -- 75
2019-04-02 00:00:00 11 3 Nordeste 8 Este 0 -- -- 76
2019-04-01 23:00:00 10.2 0 Calma 8 Oeste 0 -- -- 74
2019-04-01 22:00:00 11.7 0 Calma 9 Sudeste 0 -- -- 68
2019-04-01 21:00:00 14.5 4 Sudeste 6 Sudeste 0 -- -- 58
2019-04-01 20:00:00 17 3 Sudoeste 9 Sudeste 0 -- -- 50
2019-04-01 19:00:00 17.6 4 Sur 10 Sudoeste 0 -- -- 50
2019-04-01 18:00:00 16.7 4 Sudoeste 16 Sudeste 0 -- -- 51
2019-04-01 17:00:00 17.4 5 Sur 13 Sudeste 0 -- -- 55
2019-04-01 16:00:00 16.3 6 Sudeste 13 Sur 0 -- -- 59
2019-04-01 15:00:00 15.2 5 Sudoeste 10 Nordeste 0.2 -- -- 64
2019-04-01 14:00:00 14.2 5 Sudeste 9 Este 0 -- -- 72
2019-04-01 13:00:00 13 2 Sudeste 7 Oeste 0 -- -- 78
2019-04-01 12:00:00 11.9 3 Sur 7 Sur 0 -- -- 81
2019-04-01 11:00:00 10.6 3 Nordeste 7 Este 0 -- -- 91
2019-04-01 10:00:00 9.7 4 Nordeste 7 Nordeste 0 -- -- 93
2019-04-01 09:00:00 9.1 4 Nordeste 7 Nordeste 0.6 -- -- 92
2019-04-01 08:00:00 9.2 3 Nordeste 8 Nordeste 0 -- -- 91
2019-04-01 07:00:00 9.4 4 Norte 7 Norte 0 -- -- 89
2019-04-01 06:00:00 9.6 0 Calma 6 Norte 0 -- -- 87
2019-04-01 05:00:00 9.6 3 Nordeste 9 Norte 0 -- -- 87
2019-04-01 04:00:00 9.5 2 Norte 6 Nordeste 0 -- -- 88
2019-04-01 03:00:00 9.4 4 Norte 10 Norte 0 -- -- 89
2019-04-01 02:00:00 9.7 4 Nordeste 12 Nordeste 0.4 -- -- 89
2019-04-01 01:00:00 10.2 6 Nordeste 12 Nordeste 0 -- -- 85
2019-04-01 00:00:00 10.7 6 Norte 11 Nordeste 0 -- -- 83
2019-03-31 23:00:00 11 6 Norte 12 Norte 0 -- -- 81
2019-03-31 22:00:00 10.8 4 Nordeste 8 Nordeste 0 -- -- 81
2019-03-31 21:00:00 11 3 Norte 20 Este 0 -- -- 79
2019-03-31 20:00:00 11.5 8 Sudeste 20 Sudeste 0 -- -- 77
2019-03-31 19:00:00 11.8 2 Norte 11 Norte 0 -- -- 78
2019-03-31 18:00:00 12.6 3 Norte 10 Norte 0 -- -- 75
2019-03-31 17:00:00 12.3 7 Norte 14 Norte 0.2 -- -- 76
2019-03-31 16:00:00 11.9 5 Nordeste 13 Nordeste 0.2 -- -- 73
2019-03-31 15:00:00 12.1 4 Nordeste 10 Este 0 -- -- 68
2019-03-31 14:00:00 12 7 Este 22 Este 0 -- -- 62
2019-03-31 13:00:00 12.5 8 Sudeste 19 Sudeste 0 -- -- 56
2019-03-31 12:00:00 11.9 13 Sudeste 17 Sudeste 0 -- -- 54
2019-03-31 11:00:00 11.7 4 Este 8 Nordeste 0 -- -- 59
2019-03-31 10:00:00 10 0 Calma 3 Nordeste 0 -- -- 62
2019-03-31 09:00:00 8.5 0 Calma 8 Este 0 -- -- 66
2019-03-31 08:00:00 8.6 3 Nordeste 9 Nordeste 0 -- -- 67
2019-03-31 07:00:00 9 3 Nordeste 5 Nordeste 0 -- -- 67
2019-03-31 06:00:00 9.9 3 Nordeste 7 Este 0 -- -- 64
2019-03-31 05:00:00 10.4 4 Nordeste 6 Este 0 -- -- 63
2019-03-31 03:00:00 12.1 6 Nordeste 15 Nordeste 0 -- -- 58
2019-03-31 01:00:00 11.8 5 Noroeste 10 Sudoeste 0 -- -- 57
2019-03-31 00:00:00 12 4 Sudoeste 31 Sudeste 0 -- -- 58
2019-03-30 23:00:00 13.5 18 Sudeste 31 Sudeste 0 -- -- 53
2019-03-30 22:00:00 13.2 8 Sudeste 18 Sudeste 0 -- -- 49
2019-03-30 21:00:00 13.1 3 Nordeste 5 Nordeste 0 -- -- 41
2019-03-30 20:00:00 16.8 2 Este 9 Sur 0 -- -- 34
2019-03-30 19:00:00 19.9 5 Sur 14 Sudeste 0 -- -- 30
2019-03-30 18:00:00 20.8 3 Noroeste 16 Sudeste 0 -- -- 26
2019-03-30 17:00:00 20.4 8 Este 24 Nordeste 0 -- -- 29
2019-03-30 16:00:00 20 8 Sudoeste 19 Este 0 -- -- 27
2019-03-30 15:00:00 19.2 5 Sudoeste 18 Este 0 -- -- 30
2019-03-30 14:00:00 18.3 8 Sudeste 21 Sudeste 0 -- -- 35
2019-03-30 13:00:00 16.7 10 Nordeste 17 Este 0 -- -- 35
2019-03-30 12:00:00 15.4 5 Sur 15 Sur 0 -- -- 36
2019-03-30 11:00:00 13.5 4 Sur 13 Sudeste 0 -- -- 39
2019-03-30 10:00:00 11.8 3 Nordeste 12 Este 0 -- -- 42
2019-03-30 09:00:00 9 5 Nordeste 9 Este 0 -- -- 49
2019-03-30 08:00:00 5.3 4 Este 8 Este 0 -- -- 63
2019-03-30 07:00:00 3.5 4 Este 6 Este 0 -- -- 62
2019-03-30 06:00:00 4.8 3 Nordeste 10 Nordeste 0 -- -- 54
2019-03-30 05:00:00 6.5 5 Nordeste 15 Este 0 -- -- 50
2019-03-30 04:00:00 7.8 4 Nordeste 16 Nordeste 0 -- -- 47
2019-03-30 03:00:00 8.2 7 Nordeste 17 Este 0 -- -- 47
2019-03-30 02:00:00 8.8 5 Oeste 21 Sudeste 0 -- -- 48
2019-03-30 01:00:00 10 15 Sudeste 44 Sudeste 0 -- -- 47
2019-03-30 00:00:00 10.8 26 Sudeste 44 Sudeste 0 -- -- 48
2019-03-29 23:00:00 11.8 26 Sudeste 39 Sudeste 0 -- -- 46
2019-03-29 22:00:00 12.9 21 Sudeste 32 Sudeste 0 -- -- 44
2019-03-29 21:00:00 13.5 8 Sudeste 14 Sudeste 0 -- -- 39
2019-03-29 20:00:00 15 11 Sudeste 29 Sudeste 0 -- -- 36
2019-03-29 19:00:00 16.6 20 Sudeste 36 Sur 0 -- -- 34
2019-03-29 18:00:00 18.4 22 Sudeste 35 Sudeste 0 -- -- 32
2019-03-29 17:00:00 19.2 10 Sudeste 35 Este 0 -- -- 28
2019-03-29 16:00:00 19.3 20 Sudeste 41 Sur 0 -- -- 27
2019-03-29 15:00:00 18.8 17 Sudeste 50 Sudeste 0 -- -- 27
2019-03-29 14:00:00 18.7 16 Sudeste 31 Sudeste 0 -- -- 26
2019-03-29 13:00:00 17.4 9 Sudeste 27 Este 0 -- -- 28
2019-03-29 12:00:00 16.2 14 Este 26 Sudeste 0 -- -- 32
2019-03-29 11:00:00 15.3 11 Este 22 Este 0 -- -- 31
2019-03-29 10:00:00 12.2 4 Norte 10 Norte 0 -- -- 38
2019-03-29 09:00:00 8.9 2 Noroeste 7 Este 0 -- -- 45
2019-03-29 08:00:00 5.8 6 Este 9 Este 0 -- -- 52
2019-03-29 07:00:00 4.3 5 Este 13 Este 0 -- -- 54
2019-03-29 06:00:00 4.7 8 Este 13 Este 0 -- -- 52
2019-03-29 05:00:00 5.8 7 Nordeste 10 Nordeste 0 -- -- 49
2019-03-29 04:00:00 7.4 8 Nordeste 10 Nordeste 0 -- -- 45
2019-03-29 03:00:00 8.9 6 Este 12 Sudeste 0 -- -- 39
2019-03-29 02:00:00 9.6 5 Este 15 Este 0 -- -- 35
2019-03-29 01:00:00 10.2 4 Nordeste 8 Este 0 -- -- 34
2019-03-29 00:00:00 8.3 3 Este 10 Nordeste 0 -- -- 37
2019-03-28 23:00:00 7.3 3 Norte 7 Norte 0 -- -- 37
2019-03-28 22:00:00 9.6 0 Calma 6 Este 0 -- -- 32
2019-03-28 21:00:00 12.5 2 Nordeste 5 Oeste 0 -- -- 27
2019-03-28 20:00:00 15.8 3 Sudeste 10 Sur 0 -- -- 23
2019-03-28 19:00:00 19.8 8 Sur 16 Sur 0 -- -- 20
2019-03-28 18:00:00 20.9 4 Sudeste 18 Sudeste 0 -- -- 19
2019-03-28 17:00:00 20.9 8 Sudeste 18 Este 0 -- -- 18
2019-03-28 16:00:00 20.4 7 Este 20 Sudeste 0 -- -- 18
2019-03-28 15:00:00 20.1 5 Este 24 Este 0 -- -- 19
2019-03-28 14:00:00 18.4 6 Oeste 17 Sudeste 0 -- -- 20
2019-03-28 13:00:00 18 9 Este 19 Este 0 -- -- 22
2019-03-28 12:00:00 15.9 5 Nordeste 15 Este 0 -- -- 26
2019-03-28 11:00:00 14.1 5 Nordeste 9 Nordeste 0 -- -- 29
2019-03-28 10:00:00 11.7 4 Nordeste 11 Nordeste 0 -- -- 36
2019-03-28 09:00:00 8.6 0 Calma 5 Este 0 -- -- 40
2019-03-28 08:00:00 5 4 Nordeste 13 Nordeste 0 -- -- 49
2019-03-28 07:00:00 3.8 8 Este 13 Este 0 -- -- 51
2019-03-28 06:00:00 4.1 2 Nordeste 9 Nordeste 0 -- -- 52
2019-03-28 05:00:00 5.2 8 Este 14 Este 0 -- -- 49
2019-03-28 04:00:00 6.1 9 Este 13 Nordeste 0 -- -- 46
2019-03-28 03:00:00 7.2 4 Nordeste 12 Sudeste 0 -- -- 41
2019-03-28 02:00:00 8.5 7 Este 11 Este 0 -- -- 35
2019-03-28 01:00:00 8.3 2 Sudoeste 9 Nordeste 0 -- -- 36
2019-03-28 00:00:00 6.8 3 Nordeste 9 Nordeste 0 -- -- 42
2019-03-27 23:00:00 8 3 Este 12 Este 0 -- -- 39
2019-03-27 22:00:00 9.2 2 Este 5 Este 0 -- -- 37
2019-03-27 21:00:00 11.9 0 Calma 4 Sur 0 -- -- 34
2019-03-27 20:00:00 15.2 3 Sudoeste 8 Sudoeste 0 -- -- 27
2019-03-27 19:00:00 18.7 7 Sudoeste 16 Oeste 0 -- -- 24
2019-03-27 18:00:00 20.5 2 Sur 12 Norte 0 -- -- 21
2019-03-27 17:00:00 20.2 5 Norte 18 Norte 0 -- -- 21
2019-03-27 16:00:00 19.6 7 Noroeste 18 Norte 0 -- -- 22
2019-03-27 15:00:00 18.5 8 Norte 20 Norte 0 -- -- 23
2019-03-27 14:00:00 17.2 5 Sudoeste 16 Noroeste 0 -- -- 28
2019-03-27 13:00:00 15.6 6 Noroeste 14 Noroeste 0 -- -- 31
2019-03-27 12:00:00 14.3 5 Este 13 Nordeste 0 -- -- 31
2019-03-27 11:00:00 12.5 4 Nordeste 10 Nordeste 0 -- -- 41
2019-03-27 10:00:00 10.5 4 Nordeste 14 Este 0 -- -- 43
2019-03-27 09:00:00 7.4 8 Este 12 Este 0 -- -- 41
2019-03-27 08:00:00 3.6 5 Este 8 Este 0 -- -- 59
2019-03-27 07:00:00 2.6 3 Nordeste 9 Este 0 -- -- 59
2019-03-27 06:00:00 3.1 2 Nordeste 5 Nordeste 0 -- -- 54
2019-03-27 05:00:00 4.4 3 Nordeste 8 Este 0 -- -- 57
2019-03-27 04:00:00 6.5 5 Este 11 Este 0 -- -- 68
2019-03-27 03:00:00 8.1 6 Este 21 Sudeste 0 -- -- 62
2019-03-27 02:00:00 8.7 5 Nordeste 17 Este 0 -- -- 35
2019-03-27 01:00:00 10.6 0 Calma 21 Norte 0 -- -- 45
2019-03-27 00:00:00 11.9 4 Este 17 Este 0 -- -- 40